^^
Meteo Knjazevac Station Historical Data
Daily Summary for April 28, 2021 Units:  Metric    English   Both
Daily Weekly Monthly Yearly Custom
  High: Low: Average:
Temperature: 0.9 °C 0.3 °C 0.7 °C
Dew Point: 0.8 °C 0.2 °C 0.6 °C
Humidity: 99% 99% 99%
Wind Speed: 4.8km/h 0km/h 1.4km/h
Wind Gust: 8km/h - -
Wind- - WSW
Pressure: 1015.1 hPa 1014.1 hPa -
Precipitation: 0 mm    
Historical Graphs
 
 
Tabular Data for April 28, 2021
Time Temperature Dew Point Pressure Wind Wind Speed Wind Gust Humidity Rainfall Rate (Hourly) solar Conditions
00:00 0.6 °C 0.4 °C 1015.1 hPa Calm   3.2 km/h 99% 0 mm 0 W/m2
00:10 0.6 °C 0.4 °C 1015.1 hPa Calm     99% 0 mm 0 W/m2
00:20 0.6 °C 0.4 °C 1015.1 hPa NNW 1.6 km/h 3.2 km/h 99% 0 mm 0 W/m2
00:30 0.7 °C 0.6 °C 1015.1 hPa Calm   3.2 km/h 99% 0 mm 0 W/m2
00:40 0.7 °C 0.6 °C 1015.1 hPa North 1.6 km/h 3.2 km/h 99% 0 mm 0 W/m2
00:50 0.7 °C 0.6 °C 1015.1 hPa Calm     99% 0 mm 0 W/m2
01:00 0.7 °C 0.6 °C 1014.8 hPa Calm   1.6 km/h 99% 0 mm 0 W/m2
01:10 0.8 °C 0.7 °C 1014.8 hPa Calm   3.2 km/h 99% 0 mm 0 W/m2
01:20 0.8 °C 0.7 °C 1014.8 hPa WNW 3.2 km/h 4.8 km/h 99% 0 mm 0 W/m2
01:30 0.8 °C 0.7 °C 1014.8 hPa WNW 3.2 km/h 4.8 km/h 99% 0 mm 0 W/m2
01:40 0.8 °C 0.7 °C 1014.8 hPa WNW 1.6 km/h 3.2 km/h 99% 0 mm 0 W/m2
01:50 0.8 °C 0.7 °C 1014.8 hPa Calm   3.2 km/h 99% 0 mm 0 W/m2
02:00 0.8 °C 0.7 °C 1014.8 hPa Calm   3.2 km/h 99% 0 mm 0 W/m2
02:10 0.8 °C 0.7 °C 1014.8 hPa Calm   1.6 km/h 99% 0 mm 0 W/m2
02:20 0.9 °C 0.8 °C 1014.8 hPa Calm   3.2 km/h 99% 0 mm 0 W/m2
02:30 0.9 °C 0.8 °C 1014.8 hPa Calm   3.2 km/h 99% 0 mm 0 W/m2
02:40 0.9 °C 0.8 °C 1014.4 hPa WSW 1.6 km/h 3.2 km/h 99% 0 mm 0 W/m2
02:50 0.9 °C 0.8 °C 1014.4 hPa SW 1.6 km/h 3.2 km/h 99% 0 mm 0 W/m2
03:00 0.9 °C 0.8 °C 1014.4 hPa WNW 3.2 km/h 4.8 km/h 99% 0 mm 0 W/m2
03:10 0.9 °C 0.8 °C 1014.4 hPa NW 3.2 km/h 8 km/h 99% 0 mm 0 W/m2
03:20 0.9 °C 0.8 °C 1014.4 hPa West 3.2 km/h 8 km/h 99% 0 mm 0 W/m2
03:30 0.9 °C 0.8 °C 1014.4 hPa West 3.2 km/h 8 km/h 99% 0 mm 0 W/m2
03:40 0.9 °C 0.8 °C 1014.4 hPa West 3.2 km/h 6.4 km/h 99% 0 mm 0 W/m2
03:50 0.9 °C 0.8 °C 1014.4 hPa West 3.2 km/h 6.4 km/h 99% 0 mm 0 W/m2
04:00 0.9 °C 0.8 °C 1014.1 hPa SW 3.2 km/h 4.8 km/h 99% 0 mm 0 W/m2
04:10 0.9 °C 0.8 °C 1014.1 hPa Calm   4.8 km/h 99% 0 mm 0 W/m2
04:20 0.9 °C 0.8 °C 1014.1 hPa West 1.6 km/h 3.2 km/h 99% 0 mm 0 W/m2
04:30 0.9 °C 0.8 °C 1014.1 hPa West 3.2 km/h 4.8 km/h 99% 0 mm 0 W/m2
04:40 0.8 °C 0.7 °C 1014.1 hPa WSW 1.6 km/h 4.8 km/h 99% 0 mm 0 W/m2
04:50 0.8 °C 0.7 °C 1014.1 hPa WSW 1.6 km/h 3.2 km/h 99% 0 mm 0 W/m2
05:00 0.7 °C 0.6 °C 1014.1 hPa Calm   3.2 km/h 99% 0 mm 0 W/m2
05:10 0.7 °C 0.6 °C 1014.1 hPa West 4.8 km/h 8 km/h 99% 0 mm 0 W/m2
05:20 0.6 °C 0.4 °C 1014.1 hPa WSW 1.6 km/h 8 km/h 99% 0 mm 0 W/m2
05:30 0.6 °C 0.4 °C 1014.1 hPa Calm   3.2 km/h 99% 0 mm 0 W/m2
05:40 0.5 °C 0.4 °C 1014.1 hPa Calm   3.2 km/h 99% 0 mm 0 W/m2
05:50 0.4 °C 0.3 °C 1014.1 hPa SSW 1.6 km/h 3.2 km/h 99% 0 mm 0 W/m2
06:00 0.4 °C 0.3 °C 1014.4 hPa South 1.6 km/h 3.2 km/h 99% 0 mm 0 W/m2
06:10 0.3 °C 0.2 °C 1014.4 hPa Calm   3.2 km/h 99% 0 mm 0 W/m2
06:20 0.3 °C 0.2 °C 1014.4 hPa SSE 1.6 km/h 3.2 km/h 99% 0 mm 0 W/m2
06:30 0.3 °C 0.2 °C 1014.4 hPa Calm   1.6 km/h 99% 0 mm 0 W/m2
06:40 0.4 °C 0.2 °C 1014.4 hPa Calm   3.2 km/h 99% 0 mm 0 W/m2
06:50 0.4 °C 0.3 °C 1014.4 hPa SW 3.2 km/h 4.8 km/h 99% 0 mm 0 W/m2
07:00 0.4 °C 0.3 °C 1014.4 hPa SSE 3.2 km/h 3.2 km/h 99% 0 mm 0 W/m2
07:10 0.3 °C 0.2 °C 1014.4 hPa SSW 3.2 km/h 4.8 km/h 99% 0 mm 3 W/m2
07:20 0.3 °C 0.2 °C 1014.4 hPa SSE 1.6 km/h 3.2 km/h 99% 0 mm 5 W/m2
07:30 0.3 °C 0.2 °C 1014.4 hPa Calm   3.2 km/h 99% 0 mm 11 W/m2
Knjazevac, Serbia
Compliments of Weather Underground - 2 mb